createdAt,value
2022-08-24T04:02:33.033Z,4.10
2022-08-24T04:05:04.465Z,4.30
2022-08-24T04:07:37.737Z,4.20
2022-08-24T04:10:07.432Z,5.70
2022-08-24T04:12:35.971Z,6.10
2022-08-24T04:15:08.296Z,6.20
2022-08-24T04:17:36.951Z,6.00
2022-08-24T04:20:11.166Z,4.90
2022-08-24T04:22:44.223Z,6.20
2022-08-24T04:25:15.219Z,6.10
2022-08-24T04:27:44.218Z,6.20
2022-08-24T04:30:16.761Z,6.30
2022-08-24T04:33:07.599Z,6.70
2022-08-24T04:47:22.340Z,6.40
2022-08-24T04:49:52.736Z,6.60
2022-08-24T04:52:23.081Z,6.30
2022-08-24T04:54:52.663Z,7.70
2022-08-24T04:57:23.944Z,6.60
2022-08-24T04:59:57.020Z,7.10
2022-08-24T05:02:31.038Z,6.80
2022-08-24T05:05:02.625Z,6.30
2022-08-24T05:07:32.064Z,7.30
2022-08-24T05:10:01.400Z,6.50
2022-08-24T05:12:33.142Z,6.40
2022-08-24T05:15:04.919Z,7.90
2022-08-24T05:17:36.997Z,7.40
2022-08-24T05:20:10.816Z,6.90
2022-08-24T05:22:40.249Z,7.80
2022-08-24T05:25:09.869Z,6.50
2022-08-24T05:27:39.005Z,6.90
2022-08-24T05:30:09.779Z,8.30
2022-08-24T05:32:40.348Z,8.00
2022-08-24T05:35:09.830Z,7.00
2022-08-24T05:37:40.501Z,8.10
2022-08-24T05:40:19.939Z,8.50
2022-08-24T05:42:52.251Z,8.50
2022-08-24T05:45:21.989Z,8.40
2022-08-24T05:47:52.280Z,9.40
2022-08-24T05:50:43.207Z,8.10
2022-08-24T05:53:16.334Z,7.70
2022-08-24T05:55:46.085Z,8.90
2022-08-24T05:58:22.999Z,8.60
2022-08-24T06:01:09.500Z,8.60
2022-08-24T06:03:41.240Z,9.80
2022-08-24T06:06:12.641Z,8.60
2022-08-24T06:08:46.511Z,10.00
2022-08-24T06:11:30.584Z,9.00
2022-08-24T06:14:07.266Z,8.00
2022-08-24T06:16:43.957Z,7.90
2022-08-24T06:19:16.881Z,8.00
2022-08-24T06:21:49.865Z,7.60
2022-08-24T06:27:08.089Z,7.10
2022-08-24T06:29:37.799Z,7.30
2022-08-24T06:32:26.380Z,6.30
2022-08-24T06:34:58.916Z,5.80
2022-08-24T06:37:33.877Z,6.40
2022-08-24T06:40:05.062Z,6.00
2022-08-24T06:42:37.126Z,6.60
2022-08-24T06:45:18.986Z,5.70
2022-08-24T06:47:49.456Z,5.10
2022-08-24T06:50:19.433Z,5.50
2022-08-24T06:52:54.666Z,5.50
2022-08-24T06:55:25.751Z,5.20
2022-08-24T06:57:56.150Z,4.90
2022-08-24T07:00:25.534Z,4.70
2022-08-24T07:02:54.690Z,3.80
2022-08-24T07:05:23.863Z,4.80
2022-08-24T07:08:00.695Z,4.30
2022-08-24T07:10:31.091Z,4.80
2022-08-24T07:13:00.182Z,4.60
2022-08-24T07:15:29.377Z,4.90
2022-08-24T07:18:16.351Z,4.70
2022-08-24T07:20:49.620Z,4.10
2022-08-24T07:23:41.506Z,4.30
2022-08-24T07:26:21.622Z,4.10
2022-08-24T07:29:05.658Z,4.90
2022-08-24T07:31:44.502Z,5.20
2022-08-24T07:34:34.438Z,4.80
2022-08-24T07:37:13.087Z,5.10
2022-08-24T07:39:47.890Z,4.30
2022-08-24T07:42:25.593Z,5.00
2022-08-24T07:44:59.277Z,4.60
2022-08-24T07:47:38.158Z,4.60
2022-08-24T07:50:20.064Z,4.30
2022-08-24T07:52:50.298Z,4.80
2022-08-24T07:55:19.498Z,3.90
2022-08-24T07:57:48.517Z,4.70
2022-08-24T08:00:21.855Z,4.60
2022-08-24T08:02:55.070Z,4.30
2022-08-24T08:05:25.220Z,4.60
2022-08-24T08:07:55.942Z,4.20
2022-08-24T08:10:25.768Z,4.30
2022-08-24T08:12:54.713Z,4.90
2022-08-24T08:15:23.835Z,4.60
2022-08-24T08:18:04.832Z,3.90
2022-08-24T08:20:35.401Z,3.70
2022-08-24T08:23:23.290Z,4.30
2022-08-24T08:26:21.068Z,3.90
2022-08-24T08:29:06.737Z,3.90
2022-08-24T08:31:38.648Z,4.00
2022-08-24T08:34:08.824Z,4.50
2022-08-24T08:36:40.425Z,4.60
2022-08-24T08:39:13.190Z,5.10
2022-08-24T08:42:00.587Z,4.40
2022-08-24T08:44:50.862Z,4.10
2022-08-24T08:47:47.567Z,4.80
2022-08-24T08:50:28.966Z,3.50
2022-08-24T08:53:16.349Z,3.80
2022-08-24T08:55:54.010Z,4.30
2022-08-24T08:58:57.082Z,4.30
2022-08-24T09:01:58.281Z,3.80
2022-08-24T09:04:53.183Z,4.10
2022-08-24T09:07:37.577Z,4.20
2022-08-24T09:10:19.122Z,4.00
2022-08-24T09:13:05.992Z,4.00
2022-08-24T09:16:00.127Z,3.50
2022-08-24T09:19:03.557Z,4.00
2022-08-24T09:21:58.643Z,4.00
2022-08-24T09:24:46.053Z,2.90
2022-08-24T09:27:53.684Z,3.50
2022-08-24T09:30:26.695Z,3.60
2022-08-24T09:35:39.842Z,2.80
2022-08-24T09:38:37.109Z,3.50
2022-08-24T09:41:26.606Z,4.00
2022-08-24T09:44:35.822Z,3.70
2022-08-24T09:47:23.527Z,3.90
2022-08-24T09:50:03.457Z,3.70
2022-08-24T09:53:03.935Z,3.20
2022-08-24T09:55:51.848Z,3.50
2022-08-24T09:58:36.125Z,2.70
2022-08-24T10:01:15.794Z,3.50
2022-08-24T10:03:57.517Z,3.40
2022-08-24T10:06:48.767Z,4.00
2022-08-24T10:09:39.326Z,4.20
2022-08-24T10:12:29.377Z,4.60
2022-08-24T10:15:11.731Z,3.80
2022-08-24T10:18:18.367Z,4.50
2022-08-24T10:21:18.215Z,4.80
2022-08-24T10:23:55.942Z,3.70
2022-08-24T10:26:51.376Z,4.00
2022-08-24T10:29:38.801Z,3.90
2022-08-24T10:32:41.826Z,4.10
2022-08-24T10:35:18.072Z,3.90
2022-08-24T10:38:41.149Z,3.80
2022-08-24T10:41:32.819Z,3.60
2022-08-24T10:44:27.008Z,4.00
2022-08-24T10:47:00.306Z,3.30
2022-08-24T10:49:38.274Z,3.90
2022-08-24T10:52:55.204Z,3.80
2022-08-24T10:55:34.136Z,3.10
2022-08-24T10:58:40.373Z,3.60
2022-08-24T11:01:20.627Z,4.00
2022-08-24T11:03:56.032Z,4.70
2022-08-24T11:06:32.163Z,4.30
2022-08-24T11:09:06.898Z,4.70
2022-08-24T11:11:42.420Z,3.40
2022-08-24T11:14:17.840Z,4.90
2022-08-24T11:16:48.106Z,4.20
2022-08-24T11:19:35.501Z,4.40
2022-08-24T11:22:26.403Z,3.80
2022-08-24T11:25:01.879Z,5.30
2022-08-24T11:27:52.666Z,4.20
2022-08-24T11:30:22.865Z,3.90
2022-08-24T11:32:57.185Z,4.50
2022-08-24T11:35:34.696Z,4.00
2022-08-24T11:38:20.671Z,4.30
2022-08-24T11:41:03.328Z,4.80
2022-08-24T11:44:02.705Z,6.40
2022-08-24T11:46:47.591Z,4.70
2022-08-24T11:50:03.866Z,3.90
2022-08-24T11:53:01.367Z,5.10
2022-08-24T11:55:47.266Z,4.70
2022-08-24T11:58:44.257Z,4.60
2022-08-24T12:01:36.046Z,4.20
2022-08-24T12:04:29.204Z,5.60
2022-08-24T12:07:19.794Z,4.30
2022-08-24T12:09:55.252Z,4.90
2022-08-24T12:12:42.707Z,3.70
2022-08-24T12:15:59.500Z,5.40
2022-08-24T12:18:46.990Z,4.20
2022-08-24T12:21:22.630Z,4.60
2022-08-24T12:24:06.626Z,3.80
2022-08-24T12:26:44.518Z,4.20
2022-08-24T12:29:24.011Z,4.00
2022-08-24T12:32:02.021Z,4.30
2022-08-24T12:35:04.421Z,5.30
2022-08-24T12:37:44.840Z,4.40
2022-08-24T12:40:29.581Z,4.30
2022-08-24T12:43:23.837Z,4.00
2022-08-24T12:45:56.891Z,4.80
2022-08-24T12:51:30.714Z,4.60
2022-08-24T12:54:21.398Z,4.70
2022-08-24T12:57:27.298Z,4.60
2022-08-24T13:00:03.619Z,4.30
2022-08-24T13:02:48.079Z,3.50
2022-08-24T13:05:21.728Z,4.50
2022-08-24T13:07:52.852Z,5.00
2022-08-24T13:10:25.450Z,4.90
2022-08-24T13:13:09.013Z,6.00
2022-08-24T13:15:38.303Z,4.30
2022-08-24T13:18:10.886Z,4.80
2022-08-24T13:20:43.760Z,4.30
2022-08-24T13:23:30.670Z,4.50
2022-08-24T13:26:18.445Z,4.70
2022-08-24T13:28:56.600Z,4.80
2022-08-24T13:31:51.695Z,4.40
2022-08-24T13:34:25.779Z,5.20
2022-08-24T13:37:21.275Z,4.70
2022-08-24T13:40:10.759Z,4.60
2022-08-24T13:43:22.987Z,4.90
2022-08-24T13:46:13.327Z,4.00
2022-08-24T13:49:13.250Z,4.50
2022-08-24T13:52:08.365Z,4.50
2022-08-24T13:54:55.697Z,3.80
2022-08-24T13:58:03.151Z,4.30
2022-08-24T14:00:44.211Z,4.50
2022-08-24T14:03:19.138Z,4.60
2022-08-24T14:06:20.653Z,5.50
2022-08-24T14:09:18.575Z,4.40
2022-08-24T14:12:21.551Z,4.30
2022-08-24T14:15:12.531Z,4.00
2022-08-24T14:17:55.856Z,6.20
2022-08-24T14:20:30.969Z,4.40
2022-08-24T14:22:59.033Z,4.40
2022-08-24T14:25:34.374Z,4.10
2022-08-24T14:28:05.941Z,4.60
2022-08-24T14:30:36.135Z,4.70
2022-08-24T14:33:20.415Z,5.00
2022-08-24T14:35:53.120Z,4.50
2022-08-24T14:38:25.115Z,4.00
2022-08-24T14:41:18.958Z,4.70
2022-08-24T14:44:11.765Z,4.80
2022-08-24T14:47:08.825Z,6.10
2022-08-24T14:49:53.563Z,4.20
2022-08-24T14:52:46.887Z,4.20
2022-08-24T14:58:21.411Z,5.60
2022-08-24T15:01:36.271Z,5.10
2022-08-24T15:04:14.570Z,5.10
2022-08-24T15:06:52.275Z,4.40
2022-08-24T15:09:28.203Z,4.20
2022-08-24T15:12:33.230Z,4.60
2022-08-24T15:15:05.473Z,4.40
2022-08-24T15:18:15.151Z,5.20
2022-08-24T15:20:47.372Z,3.70
2022-08-24T15:23:21.371Z,4.40
2022-08-24T15:25:53.322Z,4.30
2022-08-24T15:28:31.906Z,4.20
2022-08-24T15:31:08.609Z,4.00
2022-08-24T15:33:53.966Z,4.00
2022-08-24T15:36:23.104Z,4.50
2022-08-24T15:38:52.614Z,5.20
2022-08-24T15:41:32.143Z,4.00
2022-08-24T15:44:07.535Z,4.10
2022-08-24T15:46:45.046Z,4.50
2022-08-24T15:49:29.427Z,4.30
2022-08-24T15:52:03.062Z,4.40
2022-08-24T15:54:38.196Z,4.00
2022-08-24T15:57:19.715Z,5.00
2022-08-24T15:59:51.433Z,4.40
2022-08-24T16:02:31.046Z,3.80
2022-08-24T16:05:26.189Z,4.70
2022-08-24T16:08:05.224Z,5.30
2022-08-24T16:10:57.987Z,4.90
2022-08-24T16:13:30.864Z,4.80
2022-08-24T16:16:13.658Z,4.30
2022-08-24T16:18:56.533Z,4.00
2022-08-24T16:21:25.796Z,5.20
2022-08-24T16:24:24.059Z,4.30
2022-08-24T16:27:03.529Z,5.20
2022-08-24T16:29:35.346Z,5.30
2022-08-24T16:32:33.517Z,4.20
2022-08-24T16:35:21.633Z,4.30
2022-08-24T16:37:53.281Z,4.40
2022-08-24T16:40:23.064Z,4.20
2022-08-24T16:42:52.758Z,4.30
2022-08-24T16:45:22.471Z,5.00
2022-08-24T16:47:51.616Z,4.00
2022-08-24T16:50:21.361Z,4.10
2022-08-24T16:52:51.622Z,4.00
2022-08-24T16:55:23.288Z,4.50
2022-08-24T16:57:51.597Z,5.30
2022-08-24T17:00:22.410Z,4.00
2022-08-24T17:02:51.156Z,4.60
2022-08-24T17:05:20.205Z,4.60
2022-08-24T17:07:50.566Z,5.90
2022-08-24T17:10:22.168Z,4.30
2022-08-24T17:12:51.246Z,3.90
2022-08-24T17:15:20.885Z,3.90
2022-08-24T17:18:01.948Z,3.90
2022-08-24T17:20:32.322Z,4.10
2022-08-24T17:23:01.686Z,4.50
2022-08-24T17:25:30.844Z,3.90
2022-08-24T17:28:00.924Z,4.60
2022-08-24T17:30:30.948Z,4.40
2022-08-24T17:33:00.889Z,4.10
2022-08-24T17:35:30.445Z,5.40
2022-08-24T17:38:00.345Z,4.00
2022-08-24T17:40:32.283Z,4.30
2022-08-24T17:43:01.273Z,4.50
2022-08-24T17:45:30.050Z,4.80
2022-08-24T17:47:58.629Z,4.20
2022-08-24T17:50:28.984Z,3.80
2022-08-24T17:53:06.728Z,4.20
2022-08-24T17:55:36.071Z,4.40
2022-08-24T17:58:04.550Z,4.00
2022-08-24T18:00:33.556Z,4.40
2022-08-24T18:03:02.045Z,4.80
2022-08-24T18:05:33.414Z,5.10
2022-08-24T18:08:02.666Z,4.20
2022-08-24T18:10:34.872Z,4.60
2022-08-24T18:13:04.053Z,4.50
2022-08-24T18:15:36.297Z,4.70
2022-08-24T18:18:09.806Z,4.80
2022-08-24T18:20:41.104Z,6.10
2022-08-24T18:23:11.251Z,5.20
2022-08-24T18:29:21.978Z,4.60
2022-08-24T18:31:51.023Z,5.00
2022-08-24T18:34:21.893Z,4.00
2022-08-24T18:36:50.893Z,5.00
2022-08-24T18:39:19.669Z,4.00
2022-08-24T18:41:49.793Z,4.80
2022-08-24T18:44:20.913Z,4.80
2022-08-24T18:46:50.284Z,4.10
2022-08-24T18:49:20.785Z,4.50
2022-08-24T18:51:50.454Z,4.60
2022-08-24T18:54:26.133Z,5.60
2022-08-24T18:56:55.237Z,4.50
2022-08-24T18:59:23.602Z,4.80
2022-08-24T19:02:12.474Z,4.90
2022-08-24T19:04:48.234Z,4.20
2022-08-24T19:07:17.351Z,4.10
2022-08-24T19:09:46.088Z,5.10
2022-08-24T19:12:15.250Z,4.70
2022-08-24T19:14:46.479Z,4.60
2022-08-24T19:17:16.409Z,5.20
2022-08-24T19:19:46.702Z,5.00
2022-08-24T19:22:17.010Z,4.30
2022-08-24T19:24:47.353Z,4.20
2022-08-24T19:27:16.963Z,4.70
2022-08-24T19:29:56.282Z,4.40
2022-08-24T19:32:28.648Z,6.10
2022-08-24T19:34:59.042Z,5.50
2022-08-24T19:37:27.853Z,5.20
2022-08-24T19:39:58.588Z,4.50
2022-08-24T19:42:28.593Z,4.90
2022-08-24T19:45:19.414Z,4.40
2022-08-24T19:47:47.788Z,5.10
2022-08-24T19:50:21.209Z,5.30
2022-08-24T19:52:50.061Z,5.00
2022-08-24T19:55:18.954Z,4.10
2022-08-24T19:57:49.911Z,5.00
2022-08-24T20:00:18.400Z,4.50
2022-08-24T20:02:53.427Z,4.80
2022-08-24T20:05:26.390Z,4.70
2022-08-24T20:07:56.389Z,4.40
2022-08-24T20:10:25.516Z,5.20
2022-08-24T20:12:54.211Z,4.90
2022-08-24T20:15:25.749Z,5.40
2022-08-24T20:17:57.108Z,5.40
2022-08-24T20:20:28.346Z,5.00
2022-08-24T20:22:57.229Z,4.80
2022-08-24T20:25:25.526Z,5.00
2022-08-24T20:28:18.524Z,5.50
2022-08-24T20:30:44.953Z,4.80
2022-08-24T20:33:16.917Z,5.90
2022-08-24T20:35:45.959Z,4.70
2022-08-24T20:38:16.193Z,5.10
2022-08-24T20:40:45.768Z,4.70
2022-08-24T20:43:14.812Z,5.40
2022-08-24T20:45:43.382Z,5.00
2022-08-24T20:48:13.733Z,4.90
2022-08-24T20:50:45.960Z,5.00
2022-08-24T20:53:15.138Z,6.10
2022-08-24T20:55:44.042Z,5.00
2022-08-24T20:58:16.300Z,5.50
2022-08-24T21:00:46.526Z,5.60
2022-08-24T21:03:16.774Z,5.00
2022-08-24T21:05:47.522Z,5.50
2022-08-24T21:08:16.208Z,4.90
2022-08-24T21:10:45.397Z,4.90
2022-08-24T21:13:13.768Z,4.70
2022-08-24T21:15:42.918Z,5.30
2022-08-24T21:18:12.579Z,4.70
2022-08-24T21:20:49.251Z,5.20
2022-08-24T21:23:34.344Z,4.30
2022-08-24T21:26:05.336Z,5.20
2022-08-24T21:28:35.871Z,4.60
2022-08-24T21:31:06.345Z,4.70
2022-08-24T21:33:55.602Z,4.90
2022-08-24T21:36:40.111Z,4.90
2022-08-24T21:39:11.165Z,3.70
2022-08-24T21:41:45.533Z,4.00
2022-08-24T21:44:14.851Z,4.40
2022-08-24T21:46:43.783Z,4.00
2022-08-24T21:49:15.631Z,3.70
2022-08-24T21:51:44.544Z,4.50
2022-08-24T21:59:04.768Z,5.00
2022-08-24T22:06:17.072Z,5.10
2022-08-24T22:10:44.305Z,7.20
2022-08-24T22:44:33.427Z,2.60
2022-08-24T22:47:32.394Z,3.60
2022-08-24T22:50:06.060Z,4.20
2022-08-24T22:52:35.300Z,2.70
2022-08-24T22:55:05.106Z,3.50
2022-08-24T22:57:34.286Z,3.60
